sensor_id;sensor_type;location;lat;lon;timestamp;P1;durP1;ratioP1;P2;durP2;ratioP2
61617;SDS011;47518;51.776;9.370;2023-04-12T00:00:50;11.40;;;6.20;;
61617;SDS011;47518;51.776;9.370;2023-04-12T00:03:17;8.73;;;5.93;;
61617;SDS011;47518;51.776;9.370;2023-04-12T00:05:47;10.82;;;6.85;;
61617;SDS011;47518;51.776;9.370;2023-04-12T00:08:21;9.73;;;6.30;;
61617;SDS011;47518;51.776;9.370;2023-04-12T00:10:56;9.45;;;6.18;;
61617;SDS011;47518;51.776;9.370;2023-04-12T00:13:22;13.43;;;6.63;;
61617;SDS011;47518;51.776;9.370;2023-04-12T00:15:47;8.15;;;5.78;;
61617;SDS011;47518;51.776;9.370;2023-04-12T00:18:13;11.13;;;6.07;;
61617;SDS011;47518;51.776;9.370;2023-04-12T00:20:38;12.45;;;6.72;;
61617;SDS011;47518;51.776;9.370;2023-04-12T00:23:03;10.20;;;5.93;;
61617;SDS011;47518;51.776;9.370;2023-04-12T00:25:32;8.20;;;6.03;;
61617;SDS011;47518;51.776;9.370;2023-04-12T00:27:57;19.90;;;7.78;;
61617;SDS011;47518;51.776;9.370;2023-04-12T00:30:22;9.05;;;6.05;;
61617;SDS011;47518;51.776;9.370;2023-04-12T00:32:48;7.72;;;5.60;;
61617;SDS011;47518;51.776;9.370;2023-04-12T00:35:13;12.40;;;6.50;;
61617;SDS011;47518;51.776;9.370;2023-04-12T00:37:38;11.23;;;6.97;;
61617;SDS011;47518;51.776;9.370;2023-04-12T00:40:04;13.70;;;6.65;;
61617;SDS011;47518;51.776;9.370;2023-04-12T00:42:32;10.75;;;6.25;;
61617;SDS011;47518;51.776;9.370;2023-04-12T00:44:57;9.30;;;5.80;;
61617;SDS011;47518;51.776;9.370;2023-04-12T00:47:26;8.70;;;5.60;;
61617;SDS011;47518;51.776;9.370;2023-04-12T00:49:56;10.52;;;6.35;;
61617;SDS011;47518;51.776;9.370;2023-04-12T00:52:22;11.25;;;6.03;;
61617;SDS011;47518;51.776;9.370;2023-04-12T00:54:58;9.68;;;5.82;;
61617;SDS011;47518;51.776;9.370;2023-04-12T00:57:25;9.00;;;5.85;;
61617;SDS011;47518;51.776;9.370;2023-04-12T01:00:00;10.85;;;5.05;;
61617;SDS011;47518;51.776;9.370;2023-04-12T01:02:28;8.30;;;5.45;;
61617;SDS011;47518;51.776;9.370;2023-04-12T01:04:55;8.73;;;5.47;;
61617;SDS011;47518;51.776;9.370;2023-04-12T01:16:03;7.43;;;4.88;;
61617;SDS011;47518;51.776;9.370;2023-04-12T01:18:39;9.43;;;5.20;;
61617;SDS011;47518;51.776;9.370;2023-04-12T01:21:13;8.23;;;5.25;;
61617;SDS011;47518;51.776;9.370;2023-04-12T01:26:26;6.30;;;5.20;;
61617;SDS011;47518;51.776;9.370;2023-04-12T01:28:57;8.88;;;5.70;;
61617;SDS011;47518;51.776;9.370;2023-04-12T01:31:25;12.52;;;6.00;;
61617;SDS011;47518;51.776;9.370;2023-04-12T01:33:53;10.50;;;5.75;;
61617;SDS011;47518;51.776;9.370;2023-04-12T01:36:20;12.82;;;6.20;;
61617;SDS011;47518;51.776;9.370;2023-04-12T01:38:47;8.48;;;5.95;;
61617;SDS011;47518;51.776;9.370;2023-04-12T01:41:14;10.43;;;5.63;;
61617;SDS011;47518;51.776;9.370;2023-04-12T01:43:40;9.95;;;5.50;;
61617;SDS011;47518;51.776;9.370;2023-04-12T01:46:07;8.52;;;6.00;;
61617;SDS011;47518;51.776;9.370;2023-04-12T01:48:32;9.35;;;5.35;;
61617;SDS011;47518;51.776;9.370;2023-04-12T01:51:05;8.15;;;5.15;;
61617;SDS011;47518;51.776;9.370;2023-04-12T01:53:55;8.23;;;5.30;;
61617;SDS011;47518;51.776;9.370;2023-04-12T01:56:23;7.68;;;5.38;;
61617;SDS011;47518;51.776;9.370;2023-04-12T01:58:54;9.77;;;5.10;;
61617;SDS011;47518;51.776;9.370;2023-04-12T02:01:21;7.32;;;4.85;;
61617;SDS011;47518;51.776;9.370;2023-04-12T02:03:47;10.82;;;5.05;;
61617;SDS011;47518;51.776;9.370;2023-04-12T02:06:14;9.13;;;5.60;;
61617;SDS011;47518;51.776;9.370;2023-04-12T02:08:43;9.15;;;5.43;;
61617;SDS011;47518;51.776;9.370;2023-04-12T02:11:09;9.20;;;5.45;;
61617;SDS011;47518;51.776;9.370;2023-04-12T02:13:35;7.50;;;5.32;;
61617;SDS011;47518;51.776;9.370;2023-04-12T02:16:01;9.02;;;5.15;;
61617;SDS011;47518;51.776;9.370;2023-04-12T02:18:26;10.57;;;5.43;;
61617;SDS011;47518;51.776;9.370;2023-04-12T02:20:52;7.53;;;5.18;;
61617;SDS011;47518;51.776;9.370;2023-04-12T02:23:20;7.65;;;5.10;;
61617;SDS011;47518;51.776;9.370;2023-04-12T02:25:46;10.20;;;5.32;;
61617;SDS011;47518;51.776;9.370;2023-04-12T02:28:12;8.20;;;5.63;;
61617;SDS011;47518;51.776;9.370;2023-04-12T02:30:37;9.18;;;5.28;;
61617;SDS011;47518;51.776;9.370;2023-04-12T02:33:07;6.70;;;4.93;;
61617;SDS011;47518;51.776;9.370;2023-04-12T02:35:34;6.90;;;5.18;;
61617;SDS011;47518;51.776;9.370;2023-04-12T02:38:00;6.82;;;4.82;;
61617;SDS011;47518;51.776;9.370;2023-04-12T02:40:27;9.48;;;5.25;;
61617;SDS011;47518;51.776;9.370;2023-04-12T02:42:53;8.98;;;5.25;;
61617;SDS011;47518;51.776;9.370;2023-04-12T02:45:18;13.20;;;5.32;;
61617;SDS011;47518;51.776;9.370;2023-04-12T02:47:44;7.55;;;4.63;;
61617;SDS011;47518;51.776;9.370;2023-04-12T02:50:09;7.03;;;5.03;;
61617;SDS011;47518;51.776;9.370;2023-04-12T02:52:34;11.43;;;5.25;;
61617;SDS011;47518;51.776;9.370;2023-04-12T02:55:00;9.43;;;5.10;;
61617;SDS011;47518;51.776;9.370;2023-04-12T02:57:25;9.27;;;4.97;;
61617;SDS011;47518;51.776;9.370;2023-04-12T02:59:50;6.40;;;4.85;;
61617;SDS011;47518;51.776;9.370;2023-04-12T03:02:17;8.07;;;4.93;;
61617;SDS011;47518;51.776;9.370;2023-04-12T03:04:43;9.60;;;4.80;;
61617;SDS011;47518;51.776;9.370;2023-04-12T03:07:10;8.20;;;4.90;;
61617;SDS011;47518;51.776;9.370;2023-04-12T03:09:37;7.53;;;4.65;;
61617;SDS011;47518;51.776;9.370;2023-04-12T03:12:02;7.78;;;4.10;;
61617;SDS011;47518;51.776;9.370;2023-04-12T03:14:32;10.13;;;4.60;;
61617;SDS011;47518;51.776;9.370;2023-04-12T03:16:57;5.47;;;3.28;;
61617;SDS011;47518;51.776;9.370;2023-04-12T03:19:22;4.80;;;2.95;;
61617;SDS011;47518;51.776;9.370;2023-04-12T03:21:48;5.60;;;3.50;;
61617;SDS011;47518;51.776;9.370;2023-04-12T03:24:13;5.35;;;3.30;;
61617;SDS011;47518;51.776;9.370;2023-04-12T03:26:38;4.53;;;3.05;;
61617;SDS011;47518;51.776;9.370;2023-04-12T03:29:05;5.95;;;3.38;;
61617;SDS011;47518;51.776;9.370;2023-04-12T03:31:32;8.02;;;3.47;;
61617;SDS011;47518;51.776;9.370;2023-04-12T03:33:58;6.00;;;2.78;;
61617;SDS011;47518;51.776;9.370;2023-04-12T03:36:24;6.88;;;3.20;;
61617;SDS011;47518;51.776;9.370;2023-04-12T03:38:51;4.65;;;3.10;;
61617;SDS011;47518;51.776;9.370;2023-04-12T03:41:17;6.18;;;3.30;;
61617;SDS011;47518;51.776;9.370;2023-04-12T03:43:42;5.78;;;3.15;;
61617;SDS011;47518;51.776;9.370;2023-04-12T03:46:07;9.10;;;3.20;;
61617;SDS011;47518;51.776;9.370;2023-04-12T03:48:33;7.13;;;3.00;;
61617;SDS011;47518;51.776;9.370;2023-04-12T03:50:59;6.00;;;3.35;;
61617;SDS011;47518;51.776;9.370;2023-04-12T03:53:27;2.95;;;2.70;;
61617;SDS011;47518;51.776;9.370;2023-04-12T03:55:54;4.47;;;3.10;;
61617;SDS011;47518;51.776;9.370;2023-04-12T03:58:20;8.07;;;2.90;;
61617;SDS011;47518;51.776;9.370;2023-04-12T04:00:45;6.65;;;3.42;;
61617;SDS011;47518;51.776;9.370;2023-04-12T04:03:11;10.38;;;3.38;;
61617;SDS011;47518;51.776;9.370;2023-04-12T04:05:36;6.10;;;2.90;;
61617;SDS011;47518;51.776;9.370;2023-04-12T04:08:02;4.82;;;2.83;;
61617;SDS011;47518;51.776;9.370;2023-04-12T04:10:31;4.95;;;3.40;;
61617;SDS011;47518;51.776;9.370;2023-04-12T04:12:56;7.75;;;3.30;;
61617;SDS011;47518;51.776;9.370;2023-04-12T04:15:22;6.22;;;3.15;;
61617;SDS011;47518;51.776;9.370;2023-04-12T04:17:49;4.72;;;3.22;;
61617;SDS011;47518;51.776;9.370;2023-04-12T04:20:14;7.68;;;3.05;;
61617;SDS011;47518;51.776;9.370;2023-04-12T04:22:43;6.47;;;2.97;;
61617;SDS011;47518;51.776;9.370;2023-04-12T04:25:09;4.80;;;2.70;;
61617;SDS011;47518;51.776;9.370;2023-04-12T04:27:38;4.90;;;2.80;;
61617;SDS011;47518;51.776;9.370;2023-04-12T04:30:04;5.05;;;2.90;;
61617;SDS011;47518;51.776;9.370;2023-04-12T04:32:31;5.50;;;2.97;;
61617;SDS011;47518;51.776;9.370;2023-04-12T04:34:57;8.25;;;3.40;;
61617;SDS011;47518;51.776;9.370;2023-04-12T04:37:24;5.90;;;2.97;;
61617;SDS011;47518;51.776;9.370;2023-04-12T04:39:51;4.95;;;2.70;;
61617;SDS011;47518;51.776;9.370;2023-04-12T04:42:16;4.38;;;2.70;;
61617;SDS011;47518;51.776;9.370;2023-04-12T04:44:42;7.55;;;3.10;;
61617;SDS011;47518;51.776;9.370;2023-04-12T04:47:08;6.28;;;3.20;;
61617;SDS011;47518;51.776;9.370;2023-04-12T04:49:34;7.97;;;3.30;;
61617;SDS011;47518;51.776;9.370;2023-04-12T04:52:01;4.72;;;2.80;;
61617;SDS011;47518;51.776;9.370;2023-04-12T04:54:26;5.40;;;2.88;;
61617;SDS011;47518;51.776;9.370;2023-04-12T04:56:52;8.30;;;3.08;;
61617;SDS011;47518;51.776;9.370;2023-04-12T04:59:18;5.00;;;3.00;;
61617;SDS011;47518;51.776;9.370;2023-04-12T05:01:44;5.15;;;3.00;;
61617;SDS011;47518;51.776;9.370;2023-04-12T05:04:10;4.45;;;2.95;;
61617;SDS011;47518;51.776;9.370;2023-04-12T05:06:35;4.30;;;2.95;;
61617;SDS011;47518;51.776;9.370;2023-04-12T05:09:00;6.43;;;3.05;;
61617;SDS011;47518;51.776;9.370;2023-04-12T05:11:26;6.03;;;3.20;;
61617;SDS011;47518;51.776;9.370;2023-04-12T05:13:51;5.60;;;2.90;;
61617;SDS011;47518;51.776;9.370;2023-04-12T05:16:17;6.30;;;2.95;;
61617;SDS011;47518;51.776;9.370;2023-04-12T05:18:42;4.50;;;2.97;;
61617;SDS011;47518;51.776;9.370;2023-04-12T05:21:08;6.13;;;3.33;;
61617;SDS011;47518;51.776;9.370;2023-04-12T05:23:34;9.45;;;3.08;;
61617;SDS011;47518;51.776;9.370;2023-04-12T05:26:01;5.80;;;3.10;;
61617;SDS011;47518;51.776;9.370;2023-04-12T05:28:30;5.45;;;3.10;;
61617;SDS011;47518;51.776;9.370;2023-04-12T05:30:55;7.07;;;3.20;;
61617;SDS011;47518;51.776;9.370;2023-04-12T05:33:21;5.63;;;3.50;;
61617;SDS011;47518;51.776;9.370;2023-04-12T05:35:49;4.13;;;3.30;;
61617;SDS011;47518;51.776;9.370;2023-04-12T05:38:15;4.32;;;3.33;;
61617;SDS011;47518;51.776;9.370;2023-04-12T05:40:40;7.93;;;3.95;;
61617;SDS011;47518;51.776;9.370;2023-04-12T05:43:07;8.05;;;3.35;;
61617;SDS011;47518;51.776;9.370;2023-04-12T05:45:36;6.00;;;3.40;;
61617;SDS011;47518;51.776;9.370;2023-04-12T05:48:01;7.22;;;3.60;;
61617;SDS011;47518;51.776;9.370;2023-04-12T05:50:27;6.90;;;3.40;;
61617;SDS011;47518;51.776;9.370;2023-04-12T05:52:53;5.57;;;3.50;;
61617;SDS011;47518;51.776;9.370;2023-04-12T05:55:19;4.90;;;3.28;;
61617;SDS011;47518;51.776;9.370;2023-04-12T05:57:45;8.25;;;3.25;;
61617;SDS011;47518;51.776;9.370;2023-04-12T06:00:11;8.93;;;3.30;;
61617;SDS011;47518;51.776;9.370;2023-04-12T06:02:44;4.90;;;3.25;;
61617;SDS011;47518;51.776;9.370;2023-04-12T06:05:10;7.07;;;3.20;;
61617;SDS011;47518;51.776;9.370;2023-04-12T06:07:37;6.55;;;3.28;;
61617;SDS011;47518;51.776;9.370;2023-04-12T06:24:53;12.18;;;3.33;;
61617;SDS011;47518;51.776;9.370;2023-04-12T06:27:18;5.88;;;3.40;;
61617;SDS011;47518;51.776;9.370;2023-04-12T06:29:44;11.27;;;3.50;;
61617;SDS011;47518;51.776;9.370;2023-04-12T06:32:10;4.40;;;3.10;;
61617;SDS011;47518;51.776;9.370;2023-04-12T06:34:35;5.65;;;3.55;;
61617;SDS011;47518;51.776;9.370;2023-04-12T06:37:01;5.78;;;3.40;;
61617;SDS011;47518;51.776;9.370;2023-04-12T06:39:26;6.10;;;3.58;;
61617;SDS011;47518;51.776;9.370;2023-04-12T06:41:52;4.38;;;3.08;;
61617;SDS011;47518;51.776;9.370;2023-04-12T06:44:17;4.75;;;3.10;;
61617;SDS011;47518;51.776;9.370;2023-04-12T06:46:43;3.97;;;3.00;;
61617;SDS011;47518;51.776;9.370;2023-04-12T06:49:08;5.63;;;2.88;;
61617;SDS011;47518;51.776;9.370;2023-04-12T06:51:34;5.75;;;3.20;;
61617;SDS011;47518;51.776;9.370;2023-04-12T06:54:00;6.82;;;3.20;;
61617;SDS011;47518;51.776;9.370;2023-04-12T06:56:25;4.38;;;3.00;;
61617;SDS011;47518;51.776;9.370;2023-04-12T06:58:51;6.78;;;3.20;;
61617;SDS011;47518;51.776;9.370;2023-04-12T07:01:16;3.47;;;2.80;;
61617;SDS011;47518;51.776;9.370;2023-04-12T07:03:42;5.45;;;2.72;;
61617;SDS011;47518;51.776;9.370;2023-04-12T07:06:10;3.50;;;2.80;;
61617;SDS011;47518;51.776;9.370;2023-04-12T07:08:36;2.85;;;2.63;;
61617;SDS011;47518;51.776;9.370;2023-04-12T07:11:01;4.03;;;2.80;;
61617;SDS011;47518;51.776;9.370;2023-04-12T07:13:27;4.43;;;2.70;;
61617;SDS011;47518;51.776;9.370;2023-04-12T07:15:53;3.25;;;2.80;;
61617;SDS011;47518;51.776;9.370;2023-04-12T07:18:19;4.63;;;2.80;;
61617;SDS011;47518;51.776;9.370;2023-04-12T07:20:45;4.60;;;2.92;;
61617;SDS011;47518;51.776;9.370;2023-04-12T07:23:12;3.70;;;2.70;;
61617;SDS011;47518;51.776;9.370;2023-04-12T07:25:37;5.55;;;2.72;;
61617;SDS011;47518;51.776;9.370;2023-04-12T07:28:03;5.57;;;3.10;;
61617;SDS011;47518;51.776;9.370;2023-04-12T07:30:29;3.13;;;2.83;;
61617;SDS011;47518;51.776;9.370;2023-04-12T07:32:55;3.47;;;2.88;;
61617;SDS011;47518;51.776;9.370;2023-04-12T07:35:20;4.63;;;2.90;;
61617;SDS011;47518;51.776;9.370;2023-04-12T07:37:45;5.82;;;3.35;;
61617;SDS011;47518;51.776;9.370;2023-04-12T07:40:11;3.35;;;2.53;;
61617;SDS011;47518;51.776;9.370;2023-04-12T07:42:36;5.53;;;3.10;;
61617;SDS011;47518;51.776;9.370;2023-04-12T07:45:02;4.93;;;3.05;;
61617;SDS011;47518;51.776;9.370;2023-04-12T07:47:27;4.05;;;2.92;;
61617;SDS011;47518;51.776;9.370;2023-04-12T07:49:53;5.95;;;2.92;;
61617;SDS011;47518;51.776;9.370;2023-04-12T07:52:19;3.53;;;3.22;;
61617;SDS011;47518;51.776;9.370;2023-04-12T07:54:44;5.55;;;3.00;;
61617;SDS011;47518;51.776;9.370;2023-04-12T07:57:09;3.50;;;3.13;;
61617;SDS011;47518;51.776;9.370;2023-04-12T07:59:35;6.35;;;3.08;;
61617;SDS011;47518;51.776;9.370;2023-04-12T08:02:00;4.47;;;2.88;;
61617;SDS011;47518;51.776;9.370;2023-04-12T08:04:26;6.78;;;2.90;;
61617;SDS011;47518;51.776;9.370;2023-04-12T08:06:52;5.03;;;2.92;;
61617;SDS011;47518;51.776;9.370;2023-04-12T08:09:19;4.43;;;2.90;;
61617;SDS011;47518;51.776;9.370;2023-04-12T08:11:44;3.65;;;3.00;;
61617;SDS011;47518;51.776;9.370;2023-04-12T08:14:11;4.30;;;3.00;;
61617;SDS011;47518;51.776;9.370;2023-04-12T08:16:37;4.40;;;3.00;;
61617;SDS011;47518;51.776;9.370;2023-04-12T08:19:02;6.25;;;2.90;;
61617;SDS011;47518;51.776;9.370;2023-04-12T08:21:27;4.82;;;2.90;;
61617;SDS011;47518;51.776;9.370;2023-04-12T08:23:54;4.35;;;2.95;;
61617;SDS011;47518;51.776;9.370;2023-04-12T08:26:20;4.18;;;2.88;;
61617;SDS011;47518;51.776;9.370;2023-04-12T08:28:45;3.40;;;3.00;;
61617;SDS011;47518;51.776;9.370;2023-04-12T08:31:11;7.00;;;3.10;;
61617;SDS011;47518;51.776;9.370;2023-04-12T08:33:37;4.35;;;3.03;;
61617;SDS011;47518;51.776;9.370;2023-04-12T08:36:05;3.30;;;3.00;;
61617;SDS011;47518;51.776;9.370;2023-04-12T08:38:32;5.65;;;3.20;;
61617;SDS011;47518;51.776;9.370;2023-04-12T08:40:57;4.05;;;3.17;;
61617;SDS011;47518;51.776;9.370;2023-04-12T08:43:23;4.05;;;3.20;;
61617;SDS011;47518;51.776;9.370;2023-04-12T08:45:52;3.97;;;3.33;;
61617;SDS011;47518;51.776;9.370;2023-04-12T08:48:19;3.28;;;2.90;;
61617;SDS011;47518;51.776;9.370;2023-04-12T08:50:46;3.45;;;3.03;;
61617;SDS011;47518;51.776;9.370;2023-04-12T08:53:13;3.85;;;3.10;;
61617;SDS011;47518;51.776;9.370;2023-04-12T08:55:38;4.50;;;3.10;;
61617;SDS011;47518;51.776;9.370;2023-04-12T08:58:07;6.95;;;3.10;;
61617;SDS011;47518;51.776;9.370;2023-04-12T09:00:33;3.65;;;3.20;;
61617;SDS011;47518;51.776;9.370;2023-04-12T09:03:00;4.38;;;3.05;;
61617;SDS011;47518;51.776;9.370;2023-04-12T09:05:28;3.47;;;3.10;;
61617;SDS011;47518;51.776;9.370;2023-04-12T09:07:57;4.88;;;3.03;;
61617;SDS011;47518;51.776;9.370;2023-04-12T09:10:38;4.30;;;2.90;;
61617;SDS011;47518;51.776;9.370;2023-04-12T09:13:04;4.07;;;2.85;;
61617;SDS011;47518;51.776;9.370;2023-04-12T09:15:29;5.07;;;3.33;;
61617;SDS011;47518;51.776;9.370;2023-04-12T09:18:04;3.20;;;3.00;;
61617;SDS011;47518;51.776;9.370;2023-04-12T09:20:31;6.10;;;3.50;;
61617;SDS011;47518;51.776;9.370;2023-04-12T09:22:57;3.50;;;3.03;;
61617;SDS011;47518;51.776;9.370;2023-04-12T09:25:39;3.55;;;3.10;;
61617;SDS011;47518;51.776;9.370;2023-04-12T09:28:17;4.13;;;2.95;;
61617;SDS011;47518;51.776;9.370;2023-04-12T09:30:45;3.90;;;3.00;;
61617;SDS011;47518;51.776;9.370;2023-04-12T09:33:15;5.05;;;3.30;;
61617;SDS011;47518;51.776;9.370;2023-04-12T09:35:42;4.72;;;2.90;;
61617;SDS011;47518;51.776;9.370;2023-04-12T09:38:08;3.03;;;2.83;;
61617;SDS011;47518;51.776;9.370;2023-04-12T09:40:35;7.25;;;3.42;;
61617;SDS011;47518;51.776;9.370;2023-04-12T09:43:01;3.58;;;3.10;;
61617;SDS011;47518;51.776;9.370;2023-04-12T09:45:28;3.83;;;2.88;;
61617;SDS011;47518;51.776;9.370;2023-04-12T09:47:55;4.05;;;3.00;;
61617;SDS011;47518;51.776;9.370;2023-04-12T09:50:21;8.40;;;3.30;;
61617;SDS011;47518;51.776;9.370;2023-04-12T09:52:48;3.42;;;3.13;;
61617;SDS011;47518;51.776;9.370;2023-04-12T09:55:18;3.20;;;2.90;;
61617;SDS011;47518;51.776;9.370;2023-04-12T09:57:45;3.65;;;2.95;;
61617;SDS011;47518;51.776;9.370;2023-04-12T10:00:15;3.05;;;2.72;;
61617;SDS011;47518;51.776;9.370;2023-04-12T10:02:42;3.35;;;3.05;;
61617;SDS011;47518;51.776;9.370;2023-04-12T10:05:10;3.45;;;3.15;;
61617;SDS011;47518;51.776;9.370;2023-04-12T10:07:38;4.47;;;2.90;;
61617;SDS011;47518;51.776;9.370;2023-04-12T10:10:06;4.93;;;3.20;;
61617;SDS011;47518;51.776;9.370;2023-04-12T10:12:33;3.03;;;2.80;;
61617;SDS011;47518;51.776;9.370;2023-04-12T10:15:02;3.25;;;2.95;;
61617;SDS011;47518;51.776;9.370;2023-04-12T10:17:31;2.70;;;2.60;;
61617;SDS011;47518;51.776;9.370;2023-04-12T10:19:59;3.00;;;2.67;;
61617;SDS011;47518;51.776;9.370;2023-04-12T10:22:27;3.38;;;2.65;;
61617;SDS011;47518;51.776;9.370;2023-04-12T10:24:53;3.13;;;2.88;;
61617;SDS011;47518;51.776;9.370;2023-04-12T10:27:26;4.43;;;2.50;;
61617;SDS011;47518;51.776;9.370;2023-04-12T10:29:51;3.08;;;2.70;;
61617;SDS011;47518;51.776;9.370;2023-04-12T10:32:18;3.25;;;2.67;;
61617;SDS011;47518;51.776;9.370;2023-04-12T10:35:05;3.03;;;2.67;;
61617;SDS011;47518;51.776;9.370;2023-04-12T10:37:56;2.80;;;2.60;;
61617;SDS011;47518;51.776;9.370;2023-04-12T10:40:23;2.47;;;2.38;;
61617;SDS011;47518;51.776;9.370;2023-04-12T10:42:48;2.55;;;2.45;;
61617;SDS011;47518;51.776;9.370;2023-04-12T10:51:11;2.90;;;2.50;;
61617;SDS011;47518;51.776;9.370;2023-04-12T10:53:38;3.03;;;2.42;;
61617;SDS011;47518;51.776;9.370;2023-04-12T10:59:06;3.05;;;2.50;;
61617;SDS011;47518;51.776;9.370;2023-04-12T11:01:33;2.45;;;2.25;;
61617;SDS011;47518;51.776;9.370;2023-04-12T11:04:15;2.40;;;2.30;;
61617;SDS011;47518;51.776;9.370;2023-04-12T11:06:58;3.00;;;2.40;;
61617;SDS011;47518;51.776;9.370;2023-04-12T11:09:26;2.75;;;2.55;;
61617;SDS011;47518;51.776;9.370;2023-04-12T11:14:44;3.63;;;2.40;;
61617;SDS011;47518;51.776;9.370;2023-04-12T11:19:57;2.30;;;2.20;;
61617;SDS011;47518;51.776;9.370;2023-04-12T11:22:25;2.83;;;2.30;;
61617;SDS011;47518;51.776;9.370;2023-04-12T11:24:54;3.13;;;2.47;;
61617;SDS011;47518;51.776;9.370;2023-04-12T11:27:22;2.17;;;2.08;;
61617;SDS011;47518;51.776;9.370;2023-04-12T11:29:50;2.33;;;2.22;;
61617;SDS011;47518;51.776;9.370;2023-04-12T11:32:19;3.05;;;2.40;;
61617;SDS011;47518;51.776;9.370;2023-04-12T11:34:44;2.50;;;2.30;;
61617;SDS011;47518;51.776;9.370;2023-04-12T11:37:11;2.67;;;2.58;;
61617;SDS011;47518;51.776;9.370;2023-04-12T11:39:38;3.05;;;2.40;;
61617;SDS011;47518;51.776;9.370;2023-04-12T11:42:05;3.67;;;2.50;;
61617;SDS011;47518;51.776;9.370;2023-04-12T11:44:33;2.63;;;2.30;;
61617;SDS011;47518;51.776;9.370;2023-04-12T11:46:58;2.60;;;2.50;;
61617;SDS011;47518;51.776;9.370;2023-04-12T11:49:25;2.72;;;2.50;;
61617;SDS011;47518;51.776;9.370;2023-04-12T11:51:59;2.20;;;2.10;;
61617;SDS011;47518;51.776;9.370;2023-04-12T11:54:27;2.70;;;2.50;;
61617;SDS011;47518;51.776;9.370;2023-04-12T11:56:56;2.78;;;2.50;;
61617;SDS011;47518;51.776;9.370;2023-04-12T11:59:29;2.67;;;2.50;;
61617;SDS011;47518;51.776;9.370;2023-04-12T12:01:55;2.83;;;2.63;;
61617;SDS011;47518;51.776;9.370;2023-04-12T12:04:22;2.50;;;2.40;;
61617;SDS011;47518;51.776;9.370;2023-04-12T12:06:47;2.70;;;2.50;;
61617;SDS011;47518;51.776;9.370;2023-04-12T12:09:13;2.40;;;2.30;;
61617;SDS011;47518;51.776;9.370;2023-04-12T12:11:38;2.55;;;2.30;;
61617;SDS011;47518;51.776;9.370;2023-04-12T12:14:04;2.30;;;2.20;;
61617;SDS011;47518;51.776;9.370;2023-04-12T12:16:31;2.67;;;2.47;;
61617;SDS011;47518;51.776;9.370;2023-04-12T12:18:56;2.60;;;2.50;;
61617;SDS011;47518;51.776;9.370;2023-04-12T12:21:22;2.60;;;2.50;;
61617;SDS011;47518;51.776;9.370;2023-04-12T12:23:47;3.47;;;3.17;;
61617;SDS011;47518;51.776;9.370;2023-04-12T12:26:21;3.00;;;2.80;;
61617;SDS011;47518;51.776;9.370;2023-04-12T12:28:49;2.70;;;2.60;;
61617;SDS011;47518;51.776;9.370;2023-04-12T12:31:18;2.90;;;2.70;;
61617;SDS011;47518;51.776;9.370;2023-04-12T12:33:46;2.65;;;2.45;;
61617;SDS011;47518;51.776;9.370;2023-04-12T12:36:11;2.90;;;2.80;;
61617;SDS011;47518;51.776;9.370;2023-04-12T12:38:38;2.85;;;2.65;;
61617;SDS011;47518;51.776;9.370;2023-04-12T12:41:21;3.25;;;2.88;;
61617;SDS011;47518;51.776;9.370;2023-04-12T12:43:48;2.63;;;2.53;;
61617;SDS011;47518;51.776;9.370;2023-04-12T12:46:15;3.00;;;2.80;;
61617;SDS011;47518;51.776;9.370;2023-04-12T12:48:41;2.80;;;2.60;;
61617;SDS011;47518;51.776;9.370;2023-04-12T12:51:07;2.70;;;2.50;;
61617;SDS011;47518;51.776;9.370;2023-04-12T12:53:35;2.90;;;2.70;;
61617;SDS011;47518;51.776;9.370;2023-04-12T12:56:01;3.15;;;2.90;;
61617;SDS011;47518;51.776;9.370;2023-04-12T12:58:27;3.20;;;3.00;;
61617;SDS011;47518;51.776;9.370;2023-04-12T13:00:53;2.97;;;2.78;;
61617;SDS011;47518;51.776;9.370;2023-04-12T13:03:19;3.20;;;2.90;;
61617;SDS011;47518;51.776;9.370;2023-04-12T13:08:42;2.97;;;2.78;;
61617;SDS011;47518;51.776;9.370;2023-04-12T13:11:07;2.85;;;2.65;;
61617;SDS011;47518;51.776;9.370;2023-04-12T13:13:33;3.05;;;2.85;;
61617;SDS011;47518;51.776;9.370;2023-04-12T13:15:58;3.30;;;3.00;;
61617;SDS011;47518;51.776;9.370;2023-04-12T13:18:24;3.38;;;3.10;;
61617;SDS011;47518;51.776;9.370;2023-04-12T13:20:49;3.22;;;2.92;;
61617;SDS011;47518;51.776;9.370;2023-04-12T13:23:14;2.90;;;2.70;;
61617;SDS011;47518;51.776;9.370;2023-04-12T13:25:39;3.00;;;2.80;;
61617;SDS011;47518;51.776;9.370;2023-04-12T13:28:05;3.20;;;3.00;;
61617;SDS011;47518;51.776;9.370;2023-04-12T13:30:30;3.30;;;3.10;;
61617;SDS011;47518;51.776;9.370;2023-04-12T13:32:56;3.13;;;2.83;;
61617;SDS011;47518;51.776;9.370;2023-04-12T13:35:21;3.40;;;3.10;;
61617;SDS011;47518;51.776;9.370;2023-04-12T13:37:46;3.20;;;3.00;;
61617;SDS011;47518;51.776;9.370;2023-04-12T13:40:12;2.90;;;2.70;;
61617;SDS011;47518;51.776;9.370;2023-04-12T13:42:37;2.80;;;2.63;;
61617;SDS011;47518;51.776;9.370;2023-04-12T13:45:03;2.90;;;2.70;;
61617;SDS011;47518;51.776;9.370;2023-04-12T13:47:29;5.22;;;2.78;;
61617;SDS011;47518;51.776;9.370;2023-04-12T13:49:55;2.90;;;2.70;;
61617;SDS011;47518;51.776;9.370;2023-04-12T13:52:21;2.83;;;2.72;;
61617;SDS011;47518;51.776;9.370;2023-04-12T13:54:47;2.60;;;2.40;;
61617;SDS011;47518;51.776;9.370;2023-04-12T13:57:12;2.92;;;2.60;;
61617;SDS011;47518;51.776;9.370;2023-04-12T13:59:37;2.42;;;2.33;;
61617;SDS011;47518;51.776;9.370;2023-04-12T14:02:06;2.50;;;2.30;;
61617;SDS011;47518;51.776;9.370;2023-04-12T14:04:31;4.18;;;2.35;;
61617;SDS011;47518;51.776;9.370;2023-04-12T14:06:57;2.50;;;2.30;;
61617;SDS011;47518;51.776;9.370;2023-04-12T14:09:23;2.05;;;1.95;;
61617;SDS011;47518;51.776;9.370;2023-04-12T14:11:50;2.13;;;2.03;;
61617;SDS011;47518;51.776;9.370;2023-04-12T14:14:16;2.17;;;2.08;;
61617;SDS011;47518;51.776;9.370;2023-04-12T14:16:41;2.67;;;2.50;;
61617;SDS011;47518;51.776;9.370;2023-04-12T14:19:08;2.30;;;2.20;;
61617;SDS011;47518;51.776;9.370;2023-04-12T14:21:34;2.55;;;2.20;;
61617;SDS011;47518;51.776;9.370;2023-04-12T14:23:59;2.50;;;2.33;;
61617;SDS011;47518;51.776;9.370;2023-04-12T14:26:25;2.53;;;2.42;;
61617;SDS011;47518;51.776;9.370;2023-04-12T14:28:50;2.58;;;2.38;;
61617;SDS011;47518;51.776;9.370;2023-04-12T14:31:15;2.30;;;2.20;;
61617;SDS011;47518;51.776;9.370;2023-04-12T14:33:41;2.30;;;2.20;;
61617;SDS011;47518;51.776;9.370;2023-04-12T14:38:52;2.30;;;2.20;;
61617;SDS011;47518;51.776;9.370;2023-04-12T14:41:18;2.40;;;2.30;;
61617;SDS011;47518;51.776;9.370;2023-04-12T14:43:43;2.67;;;2.47;;
61617;SDS011;47518;51.776;9.370;2023-04-12T14:46:09;2.80;;;2.60;;
61617;SDS011;47518;51.776;9.370;2023-04-12T14:48:35;2.53;;;2.30;;
61617;SDS011;47518;51.776;9.370;2023-04-12T14:51:00;3.20;;;3.00;;
61617;SDS011;47518;51.776;9.370;2023-04-12T14:53:26;2.28;;;2.17;;
61617;SDS011;47518;51.776;9.370;2023-04-12T14:55:52;2.35;;;2.25;;
61617;SDS011;47518;51.776;9.370;2023-04-12T14:58:17;2.33;;;2.17;;
61617;SDS011;47518;51.776;9.370;2023-04-12T15:00:42;2.30;;;2.20;;
61617;SDS011;47518;51.776;9.370;2023-04-12T15:03:07;2.78;;;2.40;;
61617;SDS011;47518;51.776;9.370;2023-04-12T15:05:35;2.38;;;2.17;;
61617;SDS011;47518;51.776;9.370;2023-04-12T15:08:09;2.30;;;2.20;;
61617;SDS011;47518;51.776;9.370;2023-04-12T15:10:34;2.20;;;2.10;;
61617;SDS011;47518;51.776;9.370;2023-04-12T15:13:00;2.70;;;2.50;;
61617;SDS011;47518;51.776;9.370;2023-04-12T15:15:26;2.30;;;2.20;;
61617;SDS011;47518;51.776;9.370;2023-04-12T15:17:51;2.17;;;2.08;;
61617;SDS011;47518;51.776;9.370;2023-04-12T15:20:16;2.30;;;2.10;;
61617;SDS011;47518;51.776;9.370;2023-04-12T15:22:42;2.25;;;2.15;;
61617;SDS011;47518;51.776;9.370;2023-04-12T15:25:08;2.40;;;2.30;;
61617;SDS011;47518;51.776;9.370;2023-04-12T15:27:39;2.65;;;2.55;;
61617;SDS011;47518;51.776;9.370;2023-04-12T15:30:05;2.90;;;2.70;;